Time;durP1;ratioP1;P1;durP2;ratioP2;P2;SDS_P1;SDS_P2;PMS_P1;PMS_P2;Temp;Humidity;BMP_temperature;BMP_pressure;BME280_temperature;BME280_humidity;BME280_pressure;Samples;Min_cycle;Max_cycle;Signal;HPM_P1;HPM_P2
2023/09/27 00:01:03;;;;;;;25.65;21.02;;;14.50;79.70;;;;;;5088844;28;20090;-64
2023/09/27 00:03:29;;;;;;;25.77;20.83;;;14.50;79.70;;;;;;5089105;28;20065;-64
2023/09/27 00:05:54;;;;;;;25.83;21.20;;;14.50;79.70;;;;;;5069196;28;20139;-64
2023/09/27 00:08:20;;;;;;;24.70;21.00;;;14.40;79.80;;;;;;5068694;28;20045;-65
2023/09/27 00:10:46;;;;;;;27.75;21.23;;;14.40;79.80;;;;;;5086180;28;20497;-65
2023/09/27 00:13:12;;;;;;;27.92;21.55;;;14.40;79.80;;;;;;5082308;28;20390;-64
2023/09/27 00:15:37;;;;;;;31.73;22.85;;;14.40;79.90;;;;;;5088684;28;20484;-65
2023/09/27 00:18:04;;;;;;;26.50;21.65;;;14.30;80.00;;;;;;5088408;28;20088;-64
2023/09/27 00:20:30;;;;;;;25.55;20.38;;;14.30;79.90;;;;;;5087303;28;20055;-64
2023/09/27 00:22:56;;;;;;;26.98;21.58;;;14.30;80.00;;;;;;5092316;28;20039;-64
2023/09/27 00:25:21;;;;;;;23.77;21.38;;;14.20;80.00;;;;;;5096417;28;20036;-65
2023/09/27 00:27:47;;;;;;;25.38;22.60;;;14.20;80.00;;;;;;5088526;28;20051;-64
2023/09/27 00:30:16;;;;;;;29.15;21.25;;;14.20;80.00;;;;;;5088846;28;20043;-64
2023/09/27 00:32:45;;;;;;;25.15;21.33;;;14.20;80.10;;;;;;5071847;28;20048;-64
2023/09/27 00:35:18;;;;;;;27.02;21.10;;;14.20;80.10;;;;;;5076786;28;20044;-64
2023/09/27 00:37:48;;;;;;;24.38;20.55;;;14.20;80.10;;;;;;5069042;28;20128;-65
2023/09/27 00:40:15;;;;;;;24.23;21.17;;;14.20;80.20;;;;;;5079488;28;20052;-64
2023/09/27 00:42:40;;;;;;;27.15;21.90;;;14.10;80.30;;;;;;5088347;28;20056;-64
2023/09/27 00:45:07;;;;;;;24.17;21.08;;;14.10;80.20;;;;;;5087903;28;20129;-64
2023/09/27 00:47:33;;;;;;;26.30;21.92;;;14.10;80.30;;;;;;5073858;28;20132;-64
2023/09/27 00:49:59;;;;;;;27.00;21.77;;;14.10;80.30;;;;;;5088908;28;20562;-64
2023/09/27 00:52:25;;;;;;;29.98;22.95;;;14.10;80.30;;;;;;5074705;28;20133;-64
2023/09/27 00:54:53;;;;;;;27.15;21.27;;;14.10;80.30;;;;;;5088047;28;20051;-64
2023/09/27 00:57:20;;;;;;;25.45;22.25;;;14.10;80.30;;;;;;5088293;28;20044;-64
2023/09/27 00:59:46;;;;;;;26.25;22.45;;;14.10;80.40;;;;;;5087277;28;20513;-64
2023/09/27 01:02:12;;;;;;;26.30;21.88;;;14.10;80.40;;;;;;5088373;28;20148;-64
2023/09/27 01:04:39;;;;;;;26.08;21.45;;;14.10;80.30;;;;;;5079746;28;20088;-64
2023/09/27 01:07:07;;;;;;;26.45;22.42;;;14.10;80.40;;;;;;5068101;28;20048;-64
2023/09/27 01:09:33;;;;;;;25.63;22.15;;;14.10;80.40;;;;;;5076100;28;20401;-64
2023/09/27 01:11:59;;;;;;;27.05;22.25;;;14.10;80.40;;;;;;5080797;28;20048;-65
2023/09/27 01:14:24;;;;;;;25.90;21.92;;;14.10;80.50;;;;;;5072024;28;20484;-64
2023/09/27 01:16:50;;;;;;;23.70;20.80;;;14.10;80.50;;;;;;5085487;28;20047;-64
2023/09/27 01:19:16;;;;;;;28.20;22.27;;;14.10;80.50;;;;;;5094836;28;20085;-64
2023/09/27 01:21:42;;;;;;;27.70;21.85;;;14.10;80.50;;;;;;5091786;28;20093;-65
2023/09/27 01:24:09;;;;;;;27.13;22.45;;;14.10;80.60;;;;;;5091866;28;20050;-64
2023/09/27 01:26:36;;;;;;;25.55;22.85;;;14.10;80.50;;;;;;5091146;28;20055;-65
2023/09/27 01:29:02;;;;;;;25.15;21.95;;;14.10;80.50;;;;;;5091707;28;20048;-65
2023/09/27 01:31:28;;;;;;;26.33;23.45;;;14.10;80.60;;;;;;5091622;28;20378;-64
2023/09/27 01:33:55;;;;;;;30.58;22.83;;;14.10;80.60;;;;;;5090887;28;20039;-64
2023/09/27 01:36:22;;;;;;;27.25;23.08;;;14.10;80.50;;;;;;5091804;28;20748;-65
2023/09/27 01:38:47;;;;;;;26.70;23.77;;;14.00;80.60;;;;;;5091140;28;20454;-64
2023/09/27 01:41:13;;;;;;;27.52;23.48;;;14.00;80.70;;;;;;5091457;28;20040;-65
2023/09/27 01:43:39;;;;;;;29.25;22.60;;;14.00;80.70;;;;;;5076654;28;20051;-64
2023/09/27 01:46:04;;;;;;;27.67;22.75;;;13.90;80.80;;;;;;5074605;28;20048;-65
2023/09/27 01:48:30;;;;;;;27.70;22.17;;;14.00;80.80;;;;;;5072726;28;20094;-65
2023/09/27 01:50:56;;;;;;;25.67;22.25;;;13.90;80.90;;;;;;5091356;28;20052;-65
2023/09/27 01:53:21;;;;;;;25.58;22.85;;;13.90;80.90;;;;;;5091030;28;20433;-64
2023/09/27 01:55:47;;;;;;;26.05;23.17;;;13.90;80.80;;;;;;5091341;28;20223;-65
2023/09/27 01:58:13;;;;;;;31.58;22.98;;;13.90;80.90;;;;;;5090970;28;20127;-64
2023/09/27 02:00:39;;;;;;;32.10;23.48;;;13.90;80.80;;;;;;5091261;28;20043;-65
2023/09/27 02:03:05;;;;;;;26.42;23.27;;;13.90;80.90;;;;;;5091041;28;20582;-65
2023/09/27 02:05:31;;;;;;;26.17;22.63;;;13.80;81.00;;;;;;5074693;28;21044;-64
2023/09/27 02:07:57;;;;;;;27.65;23.15;;;13.80;81.00;;;;;;5070970;28;20533;-65
2023/09/27 02:10:23;;;;;;;24.42;21.83;;;13.70;81.10;;;;;;5084869;28;20051;-64
2023/09/27 02:12:49;;;;;;;26.08;21.25;;;13.70;81.00;;;;;;5084410;28;20052;-65
2023/09/27 02:15:15;;;;;;;31.02;21.83;;;13.60;81.00;;;;;;5091093;28;20357;-64
2023/09/27 02:17:42;;;;;;;26.52;22.50;;;13.50;81.00;;;;;;5077390;28;20049;-63
2023/09/27 02:20:20;;;;;;;30.30;24.50;;;13.50;81.00;;;;;;5091058;28;20456;-64
2023/09/27 02:22:47;;;;;;;28.92;24.45;;;13.50;81.20;;;;;;5090551;28;20055;-64
2023/09/27 02:25:14;;;;;;;32.78;25.85;;;13.50;81.30;;;;;;5090559;28;20048;-65
2023/09/27 02:27:40;;;;;;;30.95;25.02;;;13.40;81.30;;;;;;5072473;28;20115;-65
2023/09/27 02:30:11;;;;;;;32.35;25.90;;;13.40;81.50;;;;;;5070110;28;20048;-64
2023/09/27 02:32:37;;;;;;;32.40;24.95;;;13.30;81.50;;;;;;5071972;28;20444;-63
2023/09/27 02:35:04;;;;;;;32.20;25.67;;;13.30;81.70;;;;;;5090211;28;20044;-64
2023/09/27 02:37:30;;;;;;;30.50;25.23;;;13.30;81.60;;;;;;5090409;28;20079;-65
2023/09/27 02:39:58;;;;;;;29.40;25.38;;;13.30;81.70;;;;;;5089956;28;20043;-65
2023/09/27 02:42:24;;;;;;;29.30;26.13;;;13.30;81.80;;;;;;5089241;28;20048;-64
2023/09/27 02:44:50;;;;;;;35.20;27.67;;;13.30;81.70;;;;;;5089934;28;20088;-65
2023/09/27 02:47:16;;;;;;;33.67;27.48;;;13.20;81.70;;;;;;5072946;28;20044;-64
2023/09/27 02:49:42;;;;;;;34.28;26.52;;;13.20;81.90;;;;;;5070177;28;20497;-64
2023/09/27 02:52:07;;;;;;;35.58;28.27;;;13.20;81.90;;;;;;5074327;28;20047;-64
2023/09/27 02:54:33;;;;;;;33.17;27.85;;;13.10;81.90;;;;;;5090199;28;20425;-65
2023/09/27 02:56:59;;;;;;;37.03;28.13;;;13.10;82.00;;;;;;5071847;28;20048;-64
2023/09/27 02:59:27;;;;;;;34.47;28.95;;;13.10;82.10;;;;;;5070290;28;20075;-65
2023/09/27 03:01:53;;;;;;;33.47;28.58;;;13.10;82.40;;;;;;5074324;28;20130;-64
2023/09/27 03:04:19;;;;;;;37.20;29.30;;;13.10;82.50;;;;;;5084167;28;20123;-64
2023/09/27 03:06:48;;;;;;;31.65;28.05;;;13.20;82.50;;;;;;5069595;28;20094;-64
2023/09/27 03:09:15;;;;;;;34.22;29.50;;;13.30;82.60;;;;;;5079632;28;20521;-64
2023/09/27 03:11:43;;;;;;;33.22;29.15;;;13.30;82.40;;;;;;5089260;28;20119;-65
2023/09/27 03:14:09;;;;;;;35.35;29.05;;;13.30;82.40;;;;;;5070764;28;20120;-64
2023/09/27 03:16:34;;;;;;;38.67;29.52;;;13.30;82.40;;;;;;5075494;28;20050;-64
2023/09/27 03:19:01;;;;;;;34.63;29.50;;;13.30;82.50;;;;;;5089532;28;20404;-65
2023/09/27 03:21:27;;;;;;;35.25;29.35;;;13.30;82.50;;;;;;5074650;28;20113;-64
2023/09/27 03:23:55;;;;;;;33.70;29.55;;;13.30;82.60;;;;;;5089683;28;20052;-65
2023/09/27 03:26:22;;;;;;;33.45;29.58;;;13.30;82.60;;;;;;5082752;28;20071;-64
2023/09/27 03:28:51;;;;;;;34.38;28.30;;;13.30;82.60;;;;;;5082094;28;20055;-64
2023/09/27 03:31:17;;;;;;;34.33;29.25;;;13.30;82.50;;;;;;5089418;28;20063;-64
2023/09/27 03:33:43;;;;;;;35.05;29.50;;;13.30;82.60;;;;;;5088791;28;20514;-64
2023/09/27 03:36:09;;;;;;;35.42;29.48;;;13.30;82.60;;;;;;5070756;28;20040;-64
2023/09/27 03:38:36;;;;;;;36.47;28.90;;;13.30;82.50;;;;;;5069265;28;20087;-64
2023/09/27 03:41:06;;;;;;;38.53;30.60;;;13.30;82.50;;;;;;5086849;28;20063;-65
2023/09/27 03:43:31;;;;;;;40.28;30.30;;;13.30;82.40;;;;;;5088881;28;20157;-64
2023/09/27 03:46:03;;;;;;;35.60;29.40;;;13.30;82.40;;;;;;5082422;28;20088;-65
2023/09/27 03:48:29;;;;;;;37.83;30.60;;;13.30;82.50;;;;;;5069065;28;20055;-64
2023/09/27 03:50:55;;;;;;;38.85;30.65;;;13.30;82.50;;;;;;5074908;28;20178;-64
2023/09/27 03:53:21;;;;;;;35.65;30.13;;;13.30;82.40;;;;;;5088190;28;20119;-63
2023/09/27 03:55:46;;;;;;;37.42;29.92;;;13.30;82.40;;;;;;5068798;28;20418;-64
2023/09/27 03:58:12;;;;;;;36.80;31.40;;;13.20;82.40;;;;;;5068461;28;20041;-64
2023/09/27 04:00:37;;;;;;;38.47;31.02;;;13.20;82.60;;;;;;5068432;28;20040;-65
2023/09/27 04:03:03;;;;;;;37.60;31.60;;;13.10;82.60;;;;;;5068276;28;20045;-64
2023/09/27 04:05:29;;;;;;;40.65;33.05;;;13.10;82.70;;;;;;5076654;28;20185;-64
2023/09/27 04:07:55;;;;;;;44.13;31.95;;;13.10;82.80;;;;;;5088620;28;20076;-64
2023/09/27 04:10:21;;;;;;;39.15;32.28;;;13.10;82.80;;;;;;5073917;28;20111;-64
2023/09/27 04:12:47;;;;;;;39.67;32.65;;;13.10;82.90;;;;;;5075672;28;20552;-64
2023/09/27 04:15:13;;;;;;;39.28;32.00;;;13.10;82.90;;;;;;5088978;28;20050;-64
2023/09/27 04:17:39;;;;;;;39.53;33.60;;;13.00;82.80;;;;;;5088758;28;20044;-64
2023/09/27 04:20:10;;;;;;;45.22;33.50;;;13.00;83.00;;;;;;5088285;28;20055;-63
2023/09/27 04:22:36;;;;;;;41.88;34.88;;;13.00;83.00;;;;;;5088172;28;20055;-64
2023/09/27 04:25:02;;;;;;;40.78;33.95;;;13.00;82.90;;;;;;5088118;28;20412;-64
2023/09/27 04:27:28;;;;;;;42.25;33.78;;;12.90;83.00;;;;;;5088491;28;20122;-65
2023/09/27 04:29:54;;;;;;;41.08;33.95;;;12.90;83.20;;;;;;5088648;28;20044;-65
2023/09/27 04:32:19;;;;;;;42.78;33.45;;;12.90;83.20;;;;;;5087844;28;20135;-64
2023/09/27 04:34:46;;;;;;;42.33;34.95;;;12.90;83.20;;;;;;5080780;28;20052;-64
2023/09/27 04:37:12;;;;;;;46.58;36.42;;;12.90;83.20;;;;;;5068550;28;20447;-64
2023/09/27 04:39:39;;;;;;;44.70;35.63;;;12.90;83.20;;;;;;5089009;28;20101;-64
2023/09/27 04:42:05;;;;;;;45.90;34.33;;;12.90;83.20;;;;;;5088031;28;20123;-64
2023/09/27 04:44:30;;;;;;;48.42;36.42;;;12.80;83.20;;;;;;5088273;28;20123;-64
2023/09/27 04:46:56;;;;;;;46.97;37.45;;;12.80;83.20;;;;;;5073126;28;20106;-64
2023/09/27 04:49:22;;;;;;;45.70;37.25;;;12.80;83.40;;;;;;5075612;28;20403;-64
2023/09/27 04:51:48;;;;;;;43.53;35.83;;;12.70;83.30;;;;;;5088277;28;20043;-64
2023/09/27 04:54:13;;;;;;;44.35;36.58;;;12.70;83.30;;;;;;5080566;28;20107;-65
2023/09/27 04:56:39;;;;;;;48.45;39.30;;;12.60;83.40;;;;;;5078060;28;20110;-65
2023/09/27 04:59:05;;;;;;;53.13;39.63;;;12.50;83.40;;;;;;5080725;28;20071;-64
2023/09/27 05:01:31;;;;;;;54.00;39.08;;;12.50;83.60;;;;;;5091489;28;20082;-64
2023/09/27 05:03:57;;;;;;;51.30;40.03;;;12.50;83.70;;;;;;5087677;28;20452;-65
2023/09/27 05:06:23;;;;;;;56.30;41.17;;;12.50;83.70;;;;;;5096302;28;20055;-65
2023/09/27 05:08:50;;;;;;;57.60;41.80;;;12.50;83.80;;;;;;5090455;28;20053;-64
2023/09/27 05:11:18;;;;;;;57.28;42.55;;;12.50;83.80;;;;;;5087657;28;20036;-64
2023/09/27 05:13:46;;;;;;;56.15;41.65;;;12.50;83.90;;;;;;5091734;28;20048;-64
2023/09/27 05:16:12;;;;;;;55.03;42.05;;;12.50;84.00;;;;;;5091621;28;20047;-65
2023/09/27 05:18:38;;;;;;;55.53;42.97;;;12.50;84.00;;;;;;5079939;28;20083;-64
2023/09/27 05:21:07;;;;;;;55.80;43.60;;;12.50;84.00;;;;;;5077943;28;20086;-64
2023/09/27 05:23:33;;;;;;;56.00;43.42;;;12.50;84.10;;;;;;5092137;28;20036;-63
2023/09/27 05:25:59;;;;;;;61.20;44.75;;;12.50;84.10;;;;;;5083479;28;20102;-65
2023/09/27 05:28:24;;;;;;;54.55;42.13;;;12.50;84.10;;;;;;5072521;28;20083;-63
2023/09/27 05:30:51;;;;;;;59.80;44.97;;;12.50;84.20;;;;;;5076865;28;20511;-65
2023/09/27 05:33:18;;;;;;;58.78;44.15;;;12.50;84.20;;;;;;5079374;28;20540;-64
2023/09/27 05:35:44;;;;;;;53.00;42.53;;;12.50;84.10;;;;;;5081369;28;20052;-64
2023/09/27 05:38:09;;;;;;;59.72;46.25;;;12.50;84.20;;;;;;5082608;28;20036;-64
2023/09/27 05:40:35;;;;;;;55.75;43.97;;;12.50;84.20;;;;;;5085709;28;20040;-64
2023/09/27 05:43:02;;;;;;;57.35;44.33;;;12.50;84.30;;;;;;5089884;28;20395;-64
2023/09/27 05:45:28;;;;;;;58.47;42.60;;;12.50;84.20;;;;;;5090818;28;20099;-64
2023/09/27 05:47:54;;;;;;;57.65;43.20;;;12.50;84.20;;;;;;5091692;28;20051;-64
2023/09/27 05:50:20;;;;;;;51.50;41.17;;;12.50;84.10;;;;;;5091547;28;20072;-64
2023/09/27 05:52:46;;;;;;;52.15;41.90;;;12.50;84.10;;;;;;5081553;28;20090;-64
2023/09/27 05:55:12;;;;;;;50.25;40.85;;;12.50;84.10;;;;;;5070956;28;20880;-64
2023/09/27 05:57:38;;;;;;;51.60;39.30;;;12.50;83.90;;;;;;5080282;28;20036;-64
2023/09/27 06:00:15;;;;;;;53.40;40.38;;;12.40;83.80;;;;;;5080247;28;20052;-64
2023/09/27 06:02:41;;;;;;;45.65;36.83;;;12.30;83.80;;;;;;5091840;28;20040;-65
2023/09/27 06:05:07;;;;;;;52.35;38.80;;;12.30;83.80;;;;;;5074541;28;20048;-64
2023/09/27 06:07:33;;;;;;;47.35;37.65;;;12.30;83.80;;;;;;5087342;28;20055;-66
2023/09/27 06:09:59;;;;;;;54.80;40.58;;;12.30;83.80;;;;;;5083798;28;20071;-65
2023/09/27 06:12:25;;;;;;;49.20;38.67;;;12.30;83.90;;;;;;5084123;28;20052;-65
2023/09/27 06:14:51;;;;;;;45.33;36.40;;;12.20;83.90;;;;;;5086399;28;20101;-65
2023/09/27 06:17:17;;;;;;;42.45;35.97;;;12.20;83.90;;;;;;5082574;28;20039;-65
2023/09/27 06:19:44;;;;;;;53.85;41.50;;;12.20;83.90;;;;;;5085687;28;20046;-65
2023/09/27 06:22:13;;;;;;;54.92;40.05;;;12.20;83.90;;;;;;5070172;28;20420;-65
2023/09/27 06:24:40;;;;;;;47.92;39.00;;;12.20;84.00;;;;;;5069985;28;20512;-65
2023/09/27 06:27:06;;;;;;;53.08;40.33;;;12.30;84.10;;;;;;5084357;28;20058;-65
2023/09/27 06:29:33;;;;;;;52.70;41.33;;;12.30;84.10;;;;;;5090953;28;20052;-65
2023/09/27 06:31:58;;;;;;;52.15;41.13;;;12.30;84.20;;;;;;5090355;28;20086;-64
2023/09/27 06:34:24;;;;;;;55.83;43.22;;;12.30;84.10;;;;;;5086039;28;20099;-64
2023/09/27 06:36:51;;;;;;;57.38;42.72;;;12.30;84.20;;;;;;5070771;28;20064;-65
2023/09/27 06:39:21;;;;;;;56.55;42.35;;;12.40;84.20;;;;;;5070338;28;20053;-65
2023/09/27 06:41:47;;;;;;;57.45;44.10;;;12.40;84.30;;;;;;5086270;28;20177;-65
2023/09/27 06:44:12;;;;;;;55.42;43.75;;;12.50;84.30;;;;;;5089920;28;20122;-65
2023/09/27 06:46:38;;;;;;;59.35;43.58;;;12.50;84.40;;;;;;5078186;28;20403;-65
2023/09/27 06:49:04;;;;;;;56.03;43.90;;;12.50;84.40;;;;;;5070143;28;20044;-65
2023/09/27 06:51:31;;;;;;;57.80;43.78;;;12.50;84.80;;;;;;5070239;28;20044;-65
2023/09/27 06:53:57;;;;;;;53.92;44.35;;;12.70;84.90;;;;;;5083064;28;20040;-65
2023/09/27 06:56:23;;;;;;;54.05;42.67;;;12.80;84.90;;;;;;5091455;28;20063;-64
2023/09/27 06:58:49;;;;;;;55.20;43.45;;;12.90;85.00;;;;;;5088717;28;20416;-65
2023/09/27 07:01:15;;;;;;;57.10;44.05;;;13.00;85.00;;;;;;5079465;28;20036;-65
2023/09/27 07:03:41;;;;;;;47.72;42.22;;;13.00;84.80;;;;;;5083909;28;20177;-65
2023/09/27 07:06:07;;;;;;;55.08;43.22;;;13.10;84.80;;;;;;5078893;28;20051;-64
2023/09/27 07:08:33;;;;;;;54.25;41.63;;;13.10;84.80;;;;;;5085723;28;20055;-65
2023/09/27 07:11:09;;;;;;;56.00;44.58;;;13.10;84.70;;;;;;5072034;28;20460;-65
2023/09/27 07:13:37;;;;;;;51.33;43.03;;;13.30;84.70;;;;;;5082533;28;20043;-65
2023/09/27 07:16:29;;;;;;;57.17;43.50;;;13.30;84.70;;;;;;5076659;28;21049;-65
2023/09/27 07:18:56;;;;;;;53.50;43.00;;;13.30;84.60;;;;;;5090430;28;20055;-64
2023/09/27 07:21:23;;;;;;;53.55;43.83;;;13.40;84.70;;;;;;5087902;28;20189;-65
2023/09/27 07:23:50;;;;;;;55.63;43.60;;;13.50;84.70;;;;;;5086945;28;20048;-65
2023/09/27 07:26:16;;;;;;;52.55;43.25;;;13.60;84.80;;;;;;5072571;28;20040;-64
2023/09/27 07:28:42;;;;;;;50.45;43.42;;;13.70;84.90;;;;;;5086163;28;20400;-65
2023/09/27 07:31:08;;;;;;;52.67;42.42;;;13.80;84.90;;;;;;5071356;28;20041;-64
2023/09/27 07:33:34;;;;;;;57.70;44.47;;;13.90;84.80;;;;;;5085538;28;20145;-65
2023/09/27 07:36:00;;;;;;;54.35;43.15;;;13.90;84.80;;;;;;5081360;28;20049;-65
2023/09/27 07:38:26;;;;;;;53.20;44.05;;;14.00;84.80;;;;;;5089933;28;20147;-65
2023/09/27 07:40:52;;;;;;;58.30;44.08;;;14.10;84.70;;;;;;5089524;28;20055;-66
2023/09/27 07:43:18;;;;;;;54.65;44.60;;;14.20;84.80;;;;;;5085642;28;20052;-65
2023/09/27 07:45:47;;;;;;;56.90;45.58;;;14.20;84.80;;;;;;5078577;28;20607;-65
2023/09/27 07:48:13;;;;;;;57.38;44.35;;;14.30;84.70;;;;;;5078093;28;20544;-65
2023/09/27 07:50:39;;;;;;;52.60;44.60;;;14.40;84.70;;;;;;5081655;28;20079;-65
2023/09/27 07:53:08;;;;;;;52.97;43.35;;;14.50;84.70;;;;;;5080153;28;20050;-65
2023/09/27 07:55:43;;;;;;;57.85;44.63;;;14.50;84.70;;;;;;5084482;28;20130;-65
2023/09/27 07:58:09;;;;;;;56.90;44.67;;;14.60;84.70;;;;;;5085691;28;20750;-65
2023/09/27 08:00:35;;;;;;;53.40;44.20;;;14.70;84.70;;;;;;5081293;28;20050;-65
2023/09/27 08:03:02;;;;;;;51.10;41.63;;;14.80;84.70;;;;;;5083511;28;20052;-65
2023/09/27 08:05:28;;;;;;;53.05;42.33;;;14.80;84.60;;;;;;5080761;28;20127;-65
2023/09/27 08:07:54;;;;;;;52.60;43.42;;;14.90;84.50;;;;;;5082381;28;20114;-65
2023/09/27 08:10:20;;;;;;;50.92;44.05;;;15.00;84.50;;;;;;5078208;28;20036;-65
2023/09/27 08:12:47;;;;;;;50.92;43.08;;;15.00;84.50;;;;;;5079925;28;20037;-65
2023/09/27 08:15:14;;;;;;;51.35;42.22;;;15.10;84.50;;;;;;5077999;28;20048;-65
2023/09/27 08:17:40;;;;;;;47.13;41.65;;;15.20;84.40;;;;;;5087724;28;20060;-65
2023/09/27 08:20:09;;;;;;;47.78;41.47;;;15.30;84.40;;;;;;5089038;28;20513;-64
2023/09/27 08:22:36;;;;;;;47.15;40.60;;;15.30;84.60;;;;;;5079094;28;20514;-65
2023/09/27 08:25:04;;;;;;;47.17;39.17;;;15.50;84.60;;;;;;5088610;28;20039;-66
2023/09/27 08:27:30;;;;;;;48.92;40.05;;;15.60;84.60;;;;;;5088528;28;20555;-66
2023/09/27 08:29:56;;;;;;;47.25;40.88;;;15.60;84.30;;;;;;5074402;28;20131;-66
2023/09/27 08:32:21;;;;;;;48.67;37.90;;;15.70;84.10;;;;;;5081183;28;20050;-66
2023/09/27 08:34:48;;;;;;;43.83;38.22;;;15.70;84.10;;;;;;5080619;28;20129;-64
2023/09/27 08:37:14;;;;;;;45.88;39.55;;;15.80;84.10;;;;;;5068303;28;20048;-65
2023/09/27 08:39:39;;;;;;;48.20;39.45;;;15.90;84.20;;;;;;5068355;28;20048;-65
2023/09/27 08:42:05;;;;;;;42.45;36.70;;;16.00;84.30;;;;;;5086654;28;20554;-65
2023/09/27 08:44:32;;;;;;;47.17;38.10;;;16.10;84.20;;;;;;5080365;28;20092;-65
2023/09/27 08:46:58;;;;;;;49.33;38.20;;;16.20;84.20;;;;;;5085430;28;20048;-65
2023/09/27 08:49:25;;;;;;;43.78;37.22;;;16.40;84.10;;;;;;5092819;28;20051;-65
2023/09/27 08:51:52;;;;;;;41.53;35.63;;;16.40;84.00;;;;;;5093067;28;20051;-65
2023/09/27 08:54:20;;;;;;;42.45;35.92;;;16.50;84.00;;;;;;5088582;28;20054;-65
2023/09/27 08:56:51;;;;;;;46.05;35.45;;;16.60;83.90;;;;;;5088078;28;20047;-65
2023/09/27 08:59:22;;;;;;;44.35;33.38;;;16.80;84.00;;;;;;5088108;28;20044;-65
2023/09/27 09:01:51;;;;;;;39.50;31.98;;;16.90;83.70;;;;;;5088501;28;20044;-65
2023/09/27 09:04:17;;;;;;;43.95;32.40;;;17.00;83.70;;;;;;5088264;28;20071;-65
2023/09/27 09:06:44;;;;;;;38.97;31.33;;;17.00;83.70;;;;;;5088386;28;20508;-65
2023/09/27 09:09:12;;;;;;;40.35;30.40;;;17.20;83.60;;;;;;5083496;28;20166;-66
2023/09/27 09:11:47;;;;;;;37.85;29.92;;;17.30;83.40;;;;;;5067283;28;20512;-65
2023/09/27 09:14:17;;;;;;;34.47;29.27;;;17.40;83.20;;;;;;5087323;28;20040;-65
2023/09/27 09:16:50;;;;;;;34.97;27.00;;;17.50;83.30;;;;;;5088580;28;20119;-65
2023/09/27 09:19:24;;;;;;;34.25;26.42;;;17.70;83.00;;;;;;5088273;28;20048;-65
2023/09/27 09:22:00;;;;;;;33.63;24.58;;;17.80;82.70;;;;;;5087205;28;20048;-65
2023/09/27 09:24:26;;;;;;;30.48;22.80;;;17.90;82.30;;;;;;5088358;28;20105;-65
2023/09/27 09:27:04;;;;;;;32.83;22.23;;;18.00;82.10;;;;;;5088144;28;20040;-65
2023/09/27 09:29:50;;;;;;;29.70;19.20;;;18.10;81.90;;;;;;5087851;28;20538;-65
2023/09/27 09:32:20;;;;;;;28.42;20.60;;;18.20;81.40;;;;;;5079871;28;20045;-65
2023/09/27 09:34:50;;;;;;;28.05;19.27;;;18.20;81.20;;;;;;5078421;28;20055;-66
2023/09/27 09:37:25;;;;;;;25.93;19.47;;;18.30;81.00;;;;;;5072766;28;20051;-65
2023/09/27 09:39:53;;;;;;;27.67;18.50;;;18.40;81.00;;;;;;5086108;28;20044;-65
2023/09/27 09:42:39;;;;;;;29.98;18.45;;;18.40;81.10;;;;;;5090536;28;20036;-65
2023/09/27 09:45:06;;;;;;;24.65;18.05;;;18.50;80.70;;;;;;5090491;28;20066;-65
2023/09/27 09:47:37;;;;;;;30.98;20.08;;;18.50;81.00;;;;;;5079477;28;20044;-66
2023/09/27 09:50:16;;;;;;;33.13;21.17;;;18.70;80.90;;;;;;5091715;28;20067;-67
2023/09/27 09:52:53;;;;;;;28.85;21.23;;;18.70;80.80;;;;;;5091075;28;20040;-66
2023/09/27 09:55:24;;;;;;;28.27;18.55;;;18.80;80.70;;;;;;5079187;28;20083;-66
2023/09/27 09:58:29;;;;;;;25.00;15.23;;;18.80;80.40;;;;;;5071231;28;20094;-66
2023/09/27 10:00:58;;;;;;;27.88;16.58;;;18.90;80.00;;;;;;5070506;28;20049;-66
2023/09/27 10:03:30;;;;;;;26.33;16.27;;;18.90;80.10;;;;;;5070880;28;20059;-66
2023/09/27 10:05:56;;;;;;;20.80;14.23;;;18.90;80.20;;;;;;5071081;28;20052;-66
2023/09/27 10:08:24;;;;;;;28.00;14.32;;;18.80;80.10;;;;;;5071250;28;20098;-66
2023/09/27 10:10:50;;;;;;;21.92;11.82;;;18.80;80.00;;;;;;5077491;28;20052;-65
2023/09/27 10:13:18;;;;;;;20.95;12.35;;;18.90;80.00;;;;;;5077799;28;20106;-65
2023/09/27 10:15:44;;;;;;;19.92;14.52;;;18.90;79.70;;;;;;5071117;28;20390;-65
2023/09/27 10:18:33;;;;;;;23.45;15.30;;;18.90;79.20;;;;;;5070552;28;20481;-65
2023/09/27 10:21:05;;;;;;;30.25;13.57;;;18.90;78.90;;;;;;5086751;28;20044;-65
2023/09/27 10:23:57;;;;;;;25.45;14.65;;;18.90;79.10;;;;;;5090150;28;20056;-66
2023/09/27 10:26:28;;;;;;;20.02;14.70;;;18.90;78.90;;;;;;5091060;28;20039;-65
2023/09/27 10:29:18;;;;;;;22.00;12.38;;;18.90;79.00;;;;;;5090865;28;20190;-65
2023/09/27 10:31:58;;;;;;;18.63;11.68;;;18.90;78.30;;;;;;5090477;28;20504;-66
2023/09/27 10:34:30;;;;;;;19.58;13.23;;;18.80;78.90;;;;;;5085525;28;20051;-65
2023/09/27 10:37:03;;;;;;;21.50;12.52;;;18.80;79.00;;;;;;5070297;28;20054;-66
2023/09/27 10:39:28;;;;;;;24.02;13.45;;;18.70;79.10;;;;;;5087616;28;20044;-65
2023/09/27 10:41:54;;;;;;;26.67;14.75;;;18.70;79.10;;;;;;5095799;28;20043;-65
2023/09/27 10:44:30;;;;;;;17.50;12.18;;;18.70;79.40;;;;;;5090408;28;20091;-65
2023/09/27 10:47:04;;;;;;;23.38;11.40;;;18.70;79.40;;;;;;5090182;28;20052;-66
2023/09/27 10:49:38;;;;;;;21.48;11.20;;;18.80;79.40;;;;;;5088604;28;20044;-65
2023/09/27 10:52:14;;;;;;;20.15;11.23;;;18.80;79.40;;;;;;5089076;28;20063;-65
2023/09/27 10:54:40;;;;;;;16.98;11.20;;;18.80;79.40;;;;;;5090745;28;20056;-66
2023/09/27 10:57:06;;;;;;;20.90;11.70;;;18.80;79.30;;;;;;5090043;28;20044;-65
2023/09/27 10:59:31;;;;;;;20.35;11.25;;;18.80;79.40;;;;;;5090029;28;20485;-65
2023/09/27 11:02:06;;;;;;;21.00;10.25;;;18.80;79.20;;;;;;5084363;28;20049;-65
2023/09/27 11:04:33;;;;;;;18.33;10.70;;;18.80;79.30;;;;;;5082679;28;20044;-65
2023/09/27 11:06:59;;;;;;;17.27;10.57;;;18.90;79.40;;;;;;5090420;28;20058;-65
2023/09/27 11:09:27;;;;;;;15.18;10.80;;;18.90;79.30;;;;;;5083353;28;20036;-66
2023/09/27 11:11:54;;;;;;;19.10;9.95;;;18.90;79.20;;;;;;5070110;28;20052;-65
2023/09/27 11:14:31;;;;;;;17.05;9.57;;;19.00;79.20;;;;;;5089870;28;20040;-65
2023/09/27 11:17:17;;;;;;;15.65;9.20;;;19.00;78.90;;;;;;5089562;28;20047;-65
2023/09/27 11:19:42;;;;;;;18.42;9.80;;;19.00;78.70;;;;;;5089989;28;20043;-66
2023/09/27 11:22:08;;;;;;;16.33;9.20;;;19.00;79.00;;;;;;5089264;28;20051;-65
2023/09/27 11:24:40;;;;;;;15.35;8.32;;;19.00;79.00;;;;;;5075782;28;20048;-65
2023/09/27 11:27:07;;;;;;;18.25;9.02;;;19.10;78.90;;;;;;5089124;28;20652;-66
2023/09/27 11:29:33;;;;;;;14.88;7.97;;;19.10;78.90;;;;;;5089642;28;20071;-65
2023/09/27 11:31:59;;;;;;;11.68;7.88;;;19.10;78.80;;;;;;5089434;28;20086;-65
2023/09/27 11:34:25;;;;;;;16.90;7.80;;;19.20;78.90;;;;;;5087929;28;20055;-66
2023/09/27 11:36:53;;;;;;;14.38;7.80;;;19.20;79.00;;;;;;5089939;28;20408;-66
2023/09/27 11:39:39;;;;;;;16.92;7.95;;;19.30;78.90;;;;;;5084387;28;20498;-65
2023/09/27 11:42:05;;;;;;;12.60;6.03;;;19.40;79.00;;;;;;5086859;28;20097;-65
2023/09/27 11:44:31;;;;;;;14.50;6.25;;;19.50;78.50;;;;;;5089405;28;20491;-66
2023/09/27 11:47:05;;;;;;;15.52;6.93;;;19.50;78.10;;;;;;5088808;28;20268;-65
2023/09/27 11:49:30;;;;;;;13.88;5.88;;;19.50;78.00;;;;;;5087427;28;20047;-65
2023/09/27 11:51:56;;;;;;;11.23;5.60;;;19.50;78.00;;;;;;5089235;28;20101;-65
2023/09/27 11:54:22;;;;;;;9.05;5.90;;;19.50;77.90;;;;;;5089317;28;20378;-66
2023/09/27 11:56:48;;;;;;;11.48;6.50;;;19.50;77.90;;;;;;5089504;28;20127;-65
2023/09/27 11:59:14;;;;;;;12.90;6.45;;;19.50;77.70;;;;;;5088975;28;20074;-65
2023/09/27 12:01:39;;;;;;;13.93;6.80;;;19.40;77.50;;;;;;5088317;28;20048;-65
2023/09/27 12:04:05;;;;;;;10.88;7.05;;;19.40;77.60;;;;;;5088879;28;20040;-66
2023/09/27 12:06:32;;;;;;;12.50;6.82;;;19.40;77.80;;;;;;5088504;28;20105;-66
2023/09/27 12:08:59;;;;;;;14.05;6.70;;;19.50;78.00;;;;;;5085767;28;20386;-65
2023/09/27 12:11:25;;;;;;;10.88;7.07;;;19.50;78.30;;;;;;5085482;28;20524;-66
2023/09/27 12:13:53;;;;;;;10.00;6.43;;;19.70;78.50;;;;;;5071715;28;20146;-66
2023/09/27 12:16:20;;;;;;;10.13;5.65;;;20.00;77.80;;;;;;5067948;28;20086;-65
2023/09/27 12:18:47;;;;;;;11.20;6.38;;;20.20;77.50;;;;;;5068587;28;20127;-65
2023/09/27 12:21:13;;;;;;;10.90;5.63;;;20.50;77.40;;;;;;5067848;28;20746;-65
2023/09/27 12:23:44;;;;;;;10.32;5.38;;;20.60;76.80;;;;;;5068856;28;20467;-65
2023/09/27 12:26:09;;;;;;;11.90;5.25;;;20.60;76.90;;;;;;5073751;28;20048;-65
2023/09/27 12:28:37;;;;;;;9.15;4.85;;;20.70;76.90;;;;;;5087403;28;20055;-65
2023/09/27 12:31:06;;;;;;;9.40;4.85;;;20.70;76.20;;;;;;5088577;28;20048;-66